Terminal Aerodrome Forecast
Issued by NWS

Current Version | Previous Version | Text Only | Print | Product List | Glossary Off
Versions: 1 2 3 4 5 6 7 8 9 10 11 12 13 14 15 16 17

587
FTUS41 KPBZ 242320
TAFHLG
TAF
KHLG 242320Z 2500/2524 32007KT P6SM SCT040
     FM250900 30003KT 5SM BR BKN025
     FM251400 31004KT P6SM SCT150=

USA.gov is the U.S. government's official web portal to all federal, state and local government web resources and services.